sensor_id;sensor_type;location;lat;lon;timestamp;P1;durP1;ratioP1;P2;durP2;ratioP2
27758;SDS011;15148;48.972;12.794;2023-07-02T00:03:46;1.83;;;1.38;;
27758;SDS011;15148;48.972;12.794;2023-07-02T00:08:48;3.50;;;1.33;;
27758;SDS011;15148;48.972;12.794;2023-07-02T00:13:50;1.60;;;1.42;;
27758;SDS011;15148;48.972;12.794;2023-07-02T00:18:53;2.20;;;1.42;;
27758;SDS011;15148;48.972;12.794;2023-07-02T00:23:55;4.85;;;1.60;;
27758;SDS011;15148;48.972;12.794;2023-07-02T00:29:00;1.80;;;1.00;;
27758;SDS011;15148;48.972;12.794;2023-07-02T00:34:02;5.20;;;1.50;;
27758;SDS011;15148;48.972;12.794;2023-07-02T00:39:05;2.78;;;1.10;;
27758;SDS011;15148;48.972;12.794;2023-07-02T00:44:07;1.55;;;1.00;;
27758;SDS011;15148;48.972;12.794;2023-07-02T00:49:11;1.08;;;1.05;;
27758;SDS011;15148;48.972;12.794;2023-07-02T00:54:14;1.73;;;1.10;;
27758;SDS011;15148;48.972;12.794;2023-07-02T00:59:16;1.23;;;1.13;;
27758;SDS011;15148;48.972;12.794;2023-07-02T01:04:18;2.05;;;1.10;;
27758;SDS011;15148;48.972;12.794;2023-07-02T01:09:20;0.98;;;0.98;;
27758;SDS011;15148;48.972;12.794;2023-07-02T01:14:38;1.45;;;1.35;;
27758;SDS011;15148;48.972;12.794;2023-07-02T01:19:49;1.77;;;0.98;;
27758;SDS011;15148;48.972;12.794;2023-07-02T01:24:54;1.40;;;1.30;;
27758;SDS011;15148;48.972;12.794;2023-07-02T01:29:56;2.00;;;1.50;;
27758;SDS011;15148;48.972;12.794;2023-07-02T01:34:58;1.48;;;1.38;;
27758;SDS011;15148;48.972;12.794;2023-07-02T01:40:05;1.75;;;1.50;;
27758;SDS011;15148;48.972;12.794;2023-07-02T01:45:08;1.63;;;1.52;;
27758;SDS011;15148;48.972;12.794;2023-07-02T01:50:10;3.13;;;1.90;;
27758;SDS011;15148;48.972;12.794;2023-07-02T01:55:12;2.88;;;2.67;;
27758;SDS011;15148;48.972;12.794;2023-07-02T02:00:14;4.00;;;3.70;;
27758;SDS011;15148;48.972;12.794;2023-07-02T02:05:17;5.43;;;5.03;;
27758;SDS011;15148;48.972;12.794;2023-07-02T02:10:22;5.20;;;4.80;;
27758;SDS011;15148;48.972;12.794;2023-07-02T02:15:24;6.35;;;5.85;;
27758;SDS011;15148;48.972;12.794;2023-07-02T02:20:26;5.95;;;5.45;;
27758;SDS011;15148;48.972;12.794;2023-07-02T02:25:28;6.00;;;5.40;;
27758;SDS011;15148;48.972;12.794;2023-07-02T02:30:29;6.30;;;5.80;;
27758;SDS011;15148;48.972;12.794;2023-07-02T02:35:32;6.43;;;5.93;;
27758;SDS011;15148;48.972;12.794;2023-07-02T02:40:34;6.18;;;5.57;;
27758;SDS011;15148;48.972;12.794;2023-07-02T02:45:39;5.47;;;5.07;;
27758;SDS011;15148;48.972;12.794;2023-07-02T02:50:42;5.72;;;5.22;;
27758;SDS011;15148;48.972;12.794;2023-07-02T02:55:44;7.22;;;5.78;;
27758;SDS011;15148;48.972;12.794;2023-07-02T03:00:46;5.88;;;5.45;;
27758;SDS011;15148;48.972;12.794;2023-07-02T03:05:50;5.60;;;5.10;;
27758;SDS011;15148;48.972;12.794;2023-07-02T03:10:52;5.90;;;5.40;;
27758;SDS011;15148;48.972;12.794;2023-07-02T03:15:54;5.22;;;4.65;;
27758;SDS011;15148;48.972;12.794;2023-07-02T03:20:56;4.00;;;3.70;;
27758;SDS011;15148;48.972;12.794;2023-07-02T03:25:58;4.93;;;4.50;;
27758;SDS011;15148;48.972;12.794;2023-07-02T03:31:00;4.05;;;3.75;;
27758;SDS011;15148;48.972;12.794;2023-07-02T03:36:02;4.35;;;3.90;;
27758;SDS011;15148;48.972;12.794;2023-07-02T03:41:04;3.92;;;3.53;;
27758;SDS011;15148;48.972;12.794;2023-07-02T03:46:06;3.97;;;3.60;;
27758;SDS011;15148;48.972;12.794;2023-07-02T03:51:08;3.70;;;3.40;;
27758;SDS011;15148;48.972;12.794;2023-07-02T03:56:09;5.03;;;3.80;;
27758;SDS011;15148;48.972;12.794;2023-07-02T04:01:11;3.80;;;3.50;;
27758;SDS011;15148;48.972;12.794;2023-07-02T04:06:17;5.05;;;3.72;;
27758;SDS011;15148;48.972;12.794;2023-07-02T04:11:19;4.13;;;3.58;;
27758;SDS011;15148;48.972;12.794;2023-07-02T04:16:20;3.47;;;3.17;;
27758;SDS011;15148;48.972;12.794;2023-07-02T04:21:22;3.55;;;3.22;;
27758;SDS011;15148;48.972;12.794;2023-07-02T04:26:24;3.22;;;2.88;;
27758;SDS011;15148;48.972;12.794;2023-07-02T04:31:48;7.45;;;3.22;;
27758;SDS011;15148;48.972;12.794;2023-07-02T04:36:49;3.88;;;2.92;;
27758;SDS011;15148;48.972;12.794;2023-07-02T04:41:54;3.55;;;3.03;;
27758;SDS011;15148;48.972;12.794;2023-07-02T04:46:57;3.92;;;3.53;;
27758;SDS011;15148;48.972;12.794;2023-07-02T04:52:02;2.58;;;2.38;;
27758;SDS011;15148;48.972;12.794;2023-07-02T04:57:04;3.38;;;2.90;;
27758;SDS011;15148;48.972;12.794;2023-07-02T05:02:06;3.35;;;3.05;;
27758;SDS011;15148;48.972;12.794;2023-07-02T05:07:08;2.35;;;2.15;;
27758;SDS011;15148;48.972;12.794;2023-07-02T05:12:10;2.67;;;2.47;;
27758;SDS011;15148;48.972;12.794;2023-07-02T05:17:12;4.93;;;2.92;;
27758;SDS011;15148;48.972;12.794;2023-07-02T05:22:15;2.97;;;2.67;;
27758;SDS011;15148;48.972;12.794;2023-07-02T05:27:20;4.07;;;2.40;;
27758;SDS011;15148;48.972;12.794;2023-07-02T05:32:22;4.53;;;2.72;;
27758;SDS011;15148;48.972;12.794;2023-07-02T05:37:24;2.85;;;2.47;;
27758;SDS011;15148;48.972;12.794;2023-07-02T05:42:25;4.55;;;2.67;;
27758;SDS011;15148;48.972;12.794;2023-07-02T05:47:27;3.13;;;2.63;;
27758;SDS011;15148;48.972;12.794;2023-07-02T05:52:31;4.78;;;2.65;;
27758;SDS011;15148;48.972;12.794;2023-07-02T05:57:33;4.70;;;2.72;;
27758;SDS011;15148;48.972;12.794;2023-07-02T06:02:35;3.20;;;2.85;;
27758;SDS011;15148;48.972;12.794;2023-07-02T06:07:37;3.55;;;2.85;;
27758;SDS011;15148;48.972;12.794;2023-07-02T06:12:40;3.33;;;3.00;;
27758;SDS011;15148;48.972;12.794;2023-07-02T06:17:43;3.00;;;2.60;;
27758;SDS011;15148;48.972;12.794;2023-07-02T06:22:45;4.03;;;3.03;;
27758;SDS011;15148;48.972;12.794;2023-07-02T06:27:47;3.15;;;2.60;;
27758;SDS011;15148;48.972;12.794;2023-07-02T06:32:49;3.28;;;2.90;;
27758;SDS011;15148;48.972;12.794;2023-07-02T06:37:53;3.45;;;2.67;;
27758;SDS011;15148;48.972;12.794;2023-07-02T06:42:55;2.78;;;2.42;;
27758;SDS011;15148;48.972;12.794;2023-07-02T06:47:57;3.38;;;2.83;;
27758;SDS011;15148;48.972;12.794;2023-07-02T06:52:59;3.47;;;2.60;;
27758;SDS011;15148;48.972;12.794;2023-07-02T06:58:01;3.33;;;2.65;;
27758;SDS011;15148;48.972;12.794;2023-07-02T07:03:03;4.80;;;2.80;;
27758;SDS011;15148;48.972;12.794;2023-07-02T07:08:05;3.67;;;2.50;;
27758;SDS011;15148;48.972;12.794;2023-07-02T07:13:07;4.85;;;2.80;;
27758;SDS011;15148;48.972;12.794;2023-07-02T07:18:12;4.97;;;3.55;;
27758;SDS011;15148;48.972;12.794;2023-07-02T07:23:15;3.45;;;2.97;;
27758;SDS011;15148;48.972;12.794;2023-07-02T07:28:18;5.10;;;2.42;;
27758;SDS011;15148;48.972;12.794;2023-07-02T07:33:20;4.13;;;3.08;;
27758;SDS011;15148;48.972;12.794;2023-07-02T07:38:22;5.85;;;4.07;;
27758;SDS011;15148;48.972;12.794;2023-07-02T07:43:24;4.93;;;3.58;;
27758;SDS011;15148;48.972;12.794;2023-07-02T07:48:26;5.65;;;3.20;;
27758;SDS011;15148;48.972;12.794;2023-07-02T07:53:28;5.82;;;3.70;;
27758;SDS011;15148;48.972;12.794;2023-07-02T07:58:31;8.27;;;3.72;;
27758;SDS011;15148;48.972;12.794;2023-07-02T08:03:37;5.18;;;4.28;;
27758;SDS011;15148;48.972;12.794;2023-07-02T08:08:39;7.40;;;4.70;;
27758;SDS011;15148;48.972;12.794;2023-07-02T08:13:42;7.45;;;4.82;;
27758;SDS011;15148;48.972;12.794;2023-07-02T08:18:44;5.35;;;4.13;;
27758;SDS011;15148;48.972;12.794;2023-07-02T08:23:46;5.85;;;4.38;;
27758;SDS011;15148;48.972;12.794;2023-07-02T08:28:48;7.32;;;4.68;;
27758;SDS011;15148;48.972;12.794;2023-07-02T08:33:50;6.00;;;4.32;;
27758;SDS011;15148;48.972;12.794;2023-07-02T08:38:52;6.70;;;4.55;;
27758;SDS011;15148;48.972;12.794;2023-07-02T08:43:54;6.47;;;4.47;;
27758;SDS011;15148;48.972;12.794;2023-07-02T08:48:56;7.50;;;4.55;;
27758;SDS011;15148;48.972;12.794;2023-07-02T08:53:58;5.88;;;4.40;;
27758;SDS011;15148;48.972;12.794;2023-07-02T08:59:00;7.78;;;4.93;;
27758;SDS011;15148;48.972;12.794;2023-07-02T09:04:02;8.35;;;5.18;;
27758;SDS011;15148;48.972;12.794;2023-07-02T09:09:04;12.20;;;5.80;;
27758;SDS011;15148;48.972;12.794;2023-07-02T09:14:06;11.18;;;7.20;;
27758;SDS011;15148;48.972;12.794;2023-07-02T09:19:08;10.65;;;7.18;;
27758;SDS011;15148;48.972;12.794;2023-07-02T09:24:20;9.80;;;7.45;;
27758;SDS011;15148;48.972;12.794;2023-07-02T09:29:28;14.18;;;7.95;;
27758;SDS011;15148;48.972;12.794;2023-07-02T09:34:31;11.93;;;8.77;;
27758;SDS011;15148;48.972;12.794;2023-07-02T09:39:35;14.60;;;8.35;;
27758;SDS011;15148;48.972;12.794;2023-07-02T09:44:38;15.02;;;8.98;;
27758;SDS011;15148;48.972;12.794;2023-07-02T09:49:52;18.00;;;10.38;;
27758;SDS011;15148;48.972;12.794;2023-07-02T09:54:56;15.32;;;10.00;;
27758;SDS011;15148;48.972;12.794;2023-07-02T10:00:00;15.70;;;9.98;;
27758;SDS011;15148;48.972;12.794;2023-07-02T10:05:22;15.40;;;9.37;;
27758;SDS011;15148;48.972;12.794;2023-07-02T10:10:32;15.32;;;10.48;;
27758;SDS011;15148;48.972;12.794;2023-07-02T10:15:34;15.27;;;9.63;;
27758;SDS011;15148;48.972;12.794;2023-07-02T10:20:40;16.67;;;9.95;;
27758;SDS011;15148;48.972;12.794;2023-07-02T10:25:42;15.82;;;9.80;;
27758;SDS011;15148;48.972;12.794;2023-07-02T10:30:44;12.00;;;8.85;;
27758;SDS011;15148;48.972;12.794;2023-07-02T10:35:48;15.77;;;10.10;;
27758;SDS011;15148;48.972;12.794;2023-07-02T10:40:55;14.43;;;9.43;;
27758;SDS011;15148;48.972;12.794;2023-07-02T10:45:58;13.88;;;9.45;;
27758;SDS011;15148;48.972;12.794;2023-07-02T10:51:11;14.68;;;9.10;;
27758;SDS011;15148;48.972;12.794;2023-07-02T10:56:17;14.85;;;9.23;;
27758;SDS011;15148;48.972;12.794;2023-07-02T11:01:23;14.40;;;8.98;;
27758;SDS011;15148;48.972;12.794;2023-07-02T11:06:29;13.13;;;8.93;;
27758;SDS011;15148;48.972;12.794;2023-07-02T11:11:32;18.30;;;9.48;;
27758;SDS011;15148;48.972;12.794;2023-07-02T11:16:34;12.25;;;8.75;;
27758;SDS011;15148;48.972;12.794;2023-07-02T11:21:49;14.88;;;9.07;;
27758;SDS011;15148;48.972;12.794;2023-07-02T11:26:58;15.52;;;8.63;;
27758;SDS011;15148;48.972;12.794;2023-07-02T11:32:05;13.70;;;9.85;;
27758;SDS011;15148;48.972;12.794;2023-07-02T11:37:10;14.57;;;9.68;;
27758;SDS011;15148;48.972;12.794;2023-07-02T11:42:12;13.88;;;9.80;;
27758;SDS011;15148;48.972;12.794;2023-07-02T11:47:14;15.23;;;9.10;;
27758;SDS011;15148;48.972;12.794;2023-07-02T11:52:16;15.65;;;9.48;;
27758;SDS011;15148;48.972;12.794;2023-07-02T11:57:19;13.43;;;9.02;;
27758;SDS011;15148;48.972;12.794;2023-07-02T12:02:23;13.00;;;9.32;;
27758;SDS011;15148;48.972;12.794;2023-07-02T12:07:24;15.18;;;9.95;;
27758;SDS011;15148;48.972;12.794;2023-07-02T12:12:26;13.27;;;9.10;;
27758;SDS011;15148;48.972;12.794;2023-07-02T12:17:28;15.80;;;9.48;;
27758;SDS011;15148;48.972;12.794;2023-07-02T12:22:30;14.98;;;9.60;;
27758;SDS011;15148;48.972;12.794;2023-07-02T12:27:32;13.43;;;9.73;;
27758;SDS011;15148;48.972;12.794;2023-07-02T12:32:34;12.95;;;9.70;;
27758;SDS011;15148;48.972;12.794;2023-07-02T12:37:42;15.68;;;9.18;;
27758;SDS011;15148;48.972;12.794;2023-07-02T12:42:45;14.57;;;9.95;;
27758;SDS011;15148;48.972;12.794;2023-07-02T12:47:48;14.57;;;10.07;;
27758;SDS011;15148;48.972;12.794;2023-07-02T12:52:50;12.30;;;9.07;;
27758;SDS011;15148;48.972;12.794;2023-07-02T12:57:52;14.98;;;9.88;;
27758;SDS011;15148;48.972;12.794;2023-07-02T13:02:54;14.32;;;9.40;;
27758;SDS011;15148;48.972;12.794;2023-07-02T13:08:06;16.23;;;9.52;;
27758;SDS011;15148;48.972;12.794;2023-07-02T13:13:08;15.63;;;9.63;;
27758;SDS011;15148;48.972;12.794;2023-07-02T13:18:23;13.98;;;10.13;;
27758;SDS011;15148;48.972;12.794;2023-07-02T13:23:26;14.27;;;9.75;;
27758;SDS011;15148;48.972;12.794;2023-07-02T13:28:28;14.05;;;9.63;;
27758;SDS011;15148;48.972;12.794;2023-07-02T13:33:30;12.90;;;9.48;;
27758;SDS011;15148;48.972;12.794;2023-07-02T13:38:32;12.02;;;9.35;;
27758;SDS011;15148;48.972;12.794;2023-07-02T13:43:34;12.30;;;9.75;;
27758;SDS011;15148;48.972;12.794;2023-07-02T13:48:36;14.27;;;9.50;;
27758;SDS011;15148;48.972;12.794;2023-07-02T13:53:38;14.43;;;8.93;;
27758;SDS011;15148;48.972;12.794;2023-07-02T14:03:57;13.30;;;9.27;;
27758;SDS011;15148;48.972;12.794;2023-07-02T14:08:59;14.75;;;9.82;;
27758;SDS011;15148;48.972;12.794;2023-07-02T14:14:01;12.18;;;8.90;;
27758;SDS011;15148;48.972;12.794;2023-07-02T14:19:03;13.80;;;8.73;;
27758;SDS011;15148;48.972;12.794;2023-07-02T14:24:06;11.48;;;8.95;;
27758;SDS011;15148;48.972;12.794;2023-07-02T14:29:08;11.50;;;8.68;;
27758;SDS011;15148;48.972;12.794;2023-07-02T14:34:10;12.23;;;8.70;;
27758;SDS011;15148;48.972;12.794;2023-07-02T14:39:11;14.80;;;10.73;;
27758;SDS011;15148;48.972;12.794;2023-07-02T14:44:13;13.65;;;9.38;;
27758;SDS011;15148;48.972;12.794;2023-07-02T14:49:15;13.00;;;9.65;;
27758;SDS011;15148;48.972;12.794;2023-07-02T14:54:17;13.98;;;9.23;;
27758;SDS011;15148;48.972;12.794;2023-07-02T14:59:19;13.75;;;9.13;;
27758;SDS011;15148;48.972;12.794;2023-07-02T15:04:21;12.68;;;9.00;;
27758;SDS011;15148;48.972;12.794;2023-07-02T15:09:24;10.82;;;8.88;;
27758;SDS011;15148;48.972;12.794;2023-07-02T15:14:26;12.77;;;8.60;;
27758;SDS011;15148;48.972;12.794;2023-07-02T15:19:28;11.70;;;8.82;;
27758;SDS011;15148;48.972;12.794;2023-07-02T15:24:30;14.65;;;9.23;;
27758;SDS011;15148;48.972;12.794;2023-07-02T15:29:35;11.70;;;8.93;;
27758;SDS011;15148;48.972;12.794;2023-07-02T15:34:37;14.40;;;9.05;;
27758;SDS011;15148;48.972;12.794;2023-07-02T15:39:39;13.70;;;9.13;;
27758;SDS011;15148;48.972;12.794;2023-07-02T15:44:41;13.77;;;9.68;;
27758;SDS011;15148;48.972;12.794;2023-07-02T15:49:44;12.82;;;8.68;;
27758;SDS011;15148;48.972;12.794;2023-07-02T15:54:46;12.57;;;9.02;;
27758;SDS011;15148;48.972;12.794;2023-07-02T15:59:48;12.57;;;8.77;;
27758;SDS011;15148;48.972;12.794;2023-07-02T16:04:50;13.48;;;9.70;;
27758;SDS011;15148;48.972;12.794;2023-07-02T16:09:54;11.57;;;8.85;;
27758;SDS011;15148;48.972;12.794;2023-07-02T16:14:56;12.77;;;9.40;;
27758;SDS011;15148;48.972;12.794;2023-07-02T16:19:58;16.90;;;9.50;;
27758;SDS011;15148;48.972;12.794;2023-07-02T16:24:59;15.45;;;9.80;;
27758;SDS011;15148;48.972;12.794;2023-07-02T16:30:02;17.17;;;9.63;;
27758;SDS011;15148;48.972;12.794;2023-07-02T16:35:05;16.58;;;9.98;;
27758;SDS011;15148;48.972;12.794;2023-07-02T16:40:08;16.13;;;9.65;;
27758;SDS011;15148;48.972;12.794;2023-07-02T16:45:10;14.63;;;10.30;;
27758;SDS011;15148;48.972;12.794;2023-07-02T16:50:12;15.27;;;10.70;;
27758;SDS011;15148;48.972;12.794;2023-07-02T16:55:13;14.82;;;10.45;;
27758;SDS011;15148;48.972;12.794;2023-07-02T17:00:16;15.00;;;11.27;;
27758;SDS011;15148;48.972;12.794;2023-07-02T17:05:18;14.80;;;10.57;;
27758;SDS011;15148;48.972;12.794;2023-07-02T17:10:20;14.90;;;11.80;;
27758;SDS011;15148;48.972;12.794;2023-07-02T17:15:22;14.45;;;11.07;;
27758;SDS011;15148;48.972;12.794;2023-07-02T17:20:23;18.15;;;12.07;;
27758;SDS011;15148;48.972;12.794;2023-07-02T17:25:28;15.70;;;10.77;;
27758;SDS011;15148;48.972;12.794;2023-07-02T17:30:31;16.55;;;11.45;;
27758;SDS011;15148;48.972;12.794;2023-07-02T17:35:39;16.98;;;10.80;;
27758;SDS011;15148;48.972;12.794;2023-07-02T17:40:42;18.10;;;12.18;;
27758;SDS011;15148;48.972;12.794;2023-07-02T17:45:53;15.07;;;10.55;;
27758;SDS011;15148;48.972;12.794;2023-07-02T17:50:56;16.05;;;11.48;;
27758;SDS011;15148;48.972;12.794;2023-07-02T17:55:59;16.20;;;11.20;;
27758;SDS011;15148;48.972;12.794;2023-07-02T18:01:01;15.55;;;11.65;;
27758;SDS011;15148;48.972;12.794;2023-07-02T18:06:03;17.80;;;12.05;;
27758;SDS011;15148;48.972;12.794;2023-07-02T18:11:05;18.52;;;12.55;;
27758;SDS011;15148;48.972;12.794;2023-07-02T18:16:07;14.93;;;10.80;;
27758;SDS011;15148;48.972;12.794;2023-07-02T18:21:09;16.85;;;11.02;;
27758;SDS011;15148;48.972;12.794;2023-07-02T18:26:11;16.25;;;11.88;;
27758;SDS011;15148;48.972;12.794;2023-07-02T18:31:13;14.90;;;10.70;;
27758;SDS011;15148;48.972;12.794;2023-07-02T18:36:15;14.60;;;11.40;;
27758;SDS011;15148;48.972;12.794;2023-07-02T18:41:17;18.90;;;11.95;;
27758;SDS011;15148;48.972;12.794;2023-07-02T18:46:19;18.27;;;11.82;;
27758;SDS011;15148;48.972;12.794;2023-07-02T18:51:21;17.38;;;11.38;;
27758;SDS011;15148;48.972;12.794;2023-07-02T18:56:23;19.35;;;11.77;;
27758;SDS011;15148;48.972;12.794;2023-07-02T19:01:25;16.33;;;12.02;;
27758;SDS011;15148;48.972;12.794;2023-07-02T19:06:27;17.45;;;12.30;;
27758;SDS011;15148;48.972;12.794;2023-07-02T19:11:29;16.42;;;12.07;;
27758;SDS011;15148;48.972;12.794;2023-07-02T19:16:31;19.27;;;12.90;;
27758;SDS011;15148;48.972;12.794;2023-07-02T19:21:33;16.95;;;11.55;;
27758;SDS011;15148;48.972;12.794;2023-07-02T19:26:36;17.98;;;11.77;;
27758;SDS011;15148;48.972;12.794;2023-07-02T19:31:38;18.50;;;12.50;;
27758;SDS011;15148;48.972;12.794;2023-07-02T19:36:47;15.70;;;12.13;;
27758;SDS011;15148;48.972;12.794;2023-07-02T19:41:49;47.15;;;30.83;;
27758;SDS011;15148;48.972;12.794;2023-07-02T19:46:51;28.88;;;21.55;;
27758;SDS011;15148;48.972;12.794;2023-07-02T19:51:53;19.02;;;12.75;;
27758;SDS011;15148;48.972;12.794;2023-07-02T19:56:55;16.77;;;12.48;;
27758;SDS011;15148;48.972;12.794;2023-07-02T20:02:00;21.17;;;13.52;;
27758;SDS011;15148;48.972;12.794;2023-07-02T20:07:02;18.77;;;13.13;;
27758;SDS011;15148;48.972;12.794;2023-07-02T20:12:04;20.67;;;14.13;;
27758;SDS011;15148;48.972;12.794;2023-07-02T20:17:06;19.77;;;13.65;;
27758;SDS011;15148;48.972;12.794;2023-07-02T20:22:08;20.40;;;12.90;;
27758;SDS011;15148;48.972;12.794;2023-07-02T20:27:10;19.60;;;12.23;;
27758;SDS011;15148;48.972;12.794;2023-07-02T20:32:15;17.63;;;12.85;;
27758;SDS011;15148;48.972;12.794;2023-07-02T20:37:20;18.63;;;12.68;;
27758;SDS011;15148;48.972;12.794;2023-07-02T20:42:22;19.75;;;12.57;;
27758;SDS011;15148;48.972;12.794;2023-07-02T20:47:24;20.88;;;13.40;;
27758;SDS011;15148;48.972;12.794;2023-07-02T20:52:26;19.80;;;12.30;;
27758;SDS011;15148;48.972;12.794;2023-07-02T20:57:28;16.88;;;12.20;;
27758;SDS011;15148;48.972;12.794;2023-07-02T21:02:30;18.27;;;12.05;;
27758;SDS011;15148;48.972;12.794;2023-07-02T21:07:32;18.60;;;13.00;;
27758;SDS011;15148;48.972;12.794;2023-07-02T21:12:35;17.30;;;11.98;;
27758;SDS011;15148;48.972;12.794;2023-07-02T21:17:37;17.25;;;12.68;;
27758;SDS011;15148;48.972;12.794;2023-07-02T21:22:39;17.75;;;12.65;;
27758;SDS011;15148;48.972;12.794;2023-07-02T21:27:41;18.25;;;12.90;;
27758;SDS011;15148;48.972;12.794;2023-07-02T21:32:43;16.65;;;12.48;;
27758;SDS011;15148;48.972;12.794;2023-07-02T21:37:48;18.75;;;13.55;;
27758;SDS011;15148;48.972;12.794;2023-07-02T21:42:50;16.00;;;12.07;;
27758;SDS011;15148;48.972;12.794;2023-07-02T21:47:52;18.40;;;13.05;;
27758;SDS011;15148;48.972;12.794;2023-07-02T21:52:54;19.75;;;13.00;;
27758;SDS011;15148;48.972;12.794;2023-07-02T21:57:56;16.40;;;12.40;;
27758;SDS011;15148;48.972;12.794;2023-07-02T22:02:58;19.70;;;14.05;;
27758;SDS011;15148;48.972;12.794;2023-07-02T22:08:00;20.65;;;14.50;;
27758;SDS011;15148;48.972;12.794;2023-07-02T22:13:03;20.38;;;12.98;;
27758;SDS011;15148;48.972;12.794;2023-07-02T22:18:06;21.92;;;14.73;;
27758;SDS011;15148;48.972;12.794;2023-07-02T22:23:09;23.17;;;13.02;;
27758;SDS011;15148;48.972;12.794;2023-07-02T22:28:11;24.23;;;14.05;;
27758;SDS011;15148;48.972;12.794;2023-07-02T22:33:13;19.05;;;13.60;;
27758;SDS011;15148;48.972;12.794;2023-07-02T22:38:15;21.23;;;13.95;;
27758;SDS011;15148;48.972;12.794;2023-07-02T22:43:17;19.20;;;14.35;;
27758;SDS011;15148;48.972;12.794;2023-07-02T22:48:19;18.85;;;12.98;;
27758;SDS011;15148;48.972;12.794;2023-07-02T22:53:21;20.58;;;14.57;;
27758;SDS011;15148;48.972;12.794;2023-07-02T22:58:23;21.67;;;14.10;;
27758;SDS011;15148;48.972;12.794;2023-07-02T23:03:25;18.25;;;13.75;;
27758;SDS011;15148;48.972;12.794;2023-07-02T23:08:27;22.85;;;14.40;;
27758;SDS011;15148;48.972;12.794;2023-07-02T23:13:29;22.27;;;14.18;;
27758;SDS011;15148;48.972;12.794;2023-07-02T23:18:31;21.77;;;14.25;;
27758;SDS011;15148;48.972;12.794;2023-07-02T23:23:36;21.00;;;14.27;;
27758;SDS011;15148;48.972;12.794;2023-07-02T23:28:40;22.58;;;14.15;;
27758;SDS011;15148;48.972;12.794;2023-07-02T23:33:42;20.42;;;14.98;;
27758;SDS011;15148;48.972;12.794;2023-07-02T23:38:44;19.25;;;14.57;;
27758;SDS011;15148;48.972;12.794;2023-07-02T23:43:46;22.98;;;14.70;;
27758;SDS011;15148;48.972;12.794;2023-07-02T23:48:48;22.92;;;14.57;;
27758;SDS011;15148;48.972;12.794;2023-07-02T23:53:50;25.27;;;15.40;;
27758;SDS011;15148;48.972;12.794;2023-07-02T23:58:52;25.73;;;15.00;;
